DAAT/TMR METAR and TAF weather

Enter ICAO airport designator
Station Type Date Time Source
DAAT METAR 2018/07/21 11:30 UTC NOAA

DAAT 211130Z 10022G37KT CAVOK 35/// Q1022


Station Type Date Time Source
DAAT Decoded METAR 2018/07/21 11:30 UTC NOAA

Tamanrasset / Aguenna, Algeria (DAAT) 22-49N 005-28E
Jul 21, 2018 - 07:30 AM EDT / 2018.07.21 1130 UTC
Wind: from the E (100 degrees) at 25 MPH (22 KT) gusting to 43 MPH (37 KT):0
Visibility: greater than 7 mile(s):0
Temperature: 95 F (35 C)
Pressure (altimeter): 30.18 in. Hg (1022 hPa)
ob: DAAT 211130Z 10022G37KT CAVOK 35/// Q1022
cycle: 11

Station Type Date Time Source
DAAT TAF 2018/07/21 12:33 UTC NOAA

TAF DAAT 211100Z 2112/2212 08015KT CAVOK
TEMPO 2112/2116 08015G25KT
BECMG 2210/2212 15008KT


Example: see airport list